.
WxDataArchive / Data Records for 2011-05-18
2011-05-17 May 2011 2011-05-19

Data Records for Wednesday, 18 May 2011

Time	Temp	Chill	HIndex	Humid	Dewpt	 Wind 	HiWind	WindDir	Rain 	Barom 
-----	----	-----	------	-----	-----	------	------	-------	-----	----- 
00:00	50.7	50.7	50.7	93	48.7	0	1	270	0.00	29.813 
00:05	50.7	50.7	50.7	93	48.7	0	1	270	0.00	29.813 
00:10	50.7	50.7	50.7	93	48.7	0	1	270	0.01	29.813 
00:15	50.7	50.7	50.7	93	48.7	0	1	270	0.00	29.810 
00:20	50.7	50.7	50.7	94	49.0	0	1	270	0.00	29.810 
00:25	50.5	50.5	50.5	94	48.8	0	1	270	0.01	29.810 
00:30	50.5	50.5	50.5	94	48.8	0	1	270	0.00	29.806 
00:35	50.5	50.5	50.5	94	48.8	0	3	270	0.00	29.806 
00:40	50.5	50.5	50.5	94	48.8	0	1	292	0.00	29.806 
00:45	50.5	50.5	50.5	94	48.8	0	1	292	0.00	29.798 
00:50	50.5	50.5	50.5	94	48.8	0	2	292	0.00	29.798 
00:55	50.5	50.5	50.5	94	48.8	0	1	292	0.00	29.798 
01:00	50.5	50.5	50.5	94	48.8	0	2	292	0.00	29.794 
01:05	50.5	50.5	50.5	94	48.8	0	0	---	0.00	29.794 
01:10	50.5	50.5	50.5	94	48.8	0	2	292	0.00	29.794 
01:15	50.5	50.5	50.5	94	48.8	0	1	292	0.00	29.787 
01:20	50.5	50.5	50.5	94	48.8	0	1	292	0.00	29.787 
01:25	50.5	50.5	50.5	95	49.1	0	0	---	0.00	29.787 
01:30	50.5	50.5	50.5	95	49.1	0	2	292	0.00	29.782 
01:35	50.5	50.5	50.5	95	49.1	0	2	292	0.00	29.782 
01:40	50.5	50.5	50.5	95	49.1	0	0	---	0.00	29.782 
01:45	50.7	50.7	50.7	95	49.3	0	1	292	0.00	29.780 
01:50	50.7	50.7	50.7	95	49.3	0	1	292	0.00	29.780 
01:55	50.7	50.7	50.7	95	49.3	0	0	---	0.00	29.780 
02:00	50.7	50.7	50.7	95	49.3	0	1	292	0.00	29.777 
02:05	50.7	50.7	50.7	95	49.3	0	4	135	0.00	29.777 
02:10	50.7	50.7	50.7	95	49.3	0	3	135	0.00	29.777 
02:15	50.7	50.7	50.7	95	49.3	0	1	270	0.00	29.776 
02:20	50.7	50.7	50.7	95	49.3	0	1	270	0.00	29.776 
02:25	50.8	50.8	50.8	95	49.4	0	2	270	0.00	29.776 
02:30	50.8	50.8	50.8	95	49.4	0	2	270	0.00	29.773 
02:35	50.8	50.8	50.8	95	49.4	0	2	270	0.01	29.773 
02:40	50.8	50.8	50.8	95	49.4	0	1	90	0.00	29.773 
02:45	50.8	50.8	50.8	95	49.4	0	2	90	0.00	29.766 
02:50	50.8	50.8	50.8	95	49.4	0	1	90	0.00	29.766 
02:55	50.8	50.8	50.8	95	49.4	0	3	90	0.00	29.766 
03:00	50.8	50.8	50.8	95	49.4	0	1	90	0.00	29.761 
03:05	50.8	50.8	50.8	95	49.4	0	1	90	0.00	29.761 
03:10	50.8	50.8	50.8	95	49.4	0	2	90	0.00	29.761 
03:15	50.8	50.8	50.8	95	49.4	0	2	90	0.00	29.761 
03:20	51.0	51.0	51.0	95	49.6	0	1	90	0.00	29.761 
03:25	51.0	51.0	51.0	95	49.6	0	0	---	0.00	29.761 
03:30	51.0	51.0	51.0	95	49.6	0	1	90	0.00	29.758 
03:35	51.0	51.0	51.0	95	49.6	0	0	---	0.00	29.758 
03:40	51.0	51.0	51.0	95	49.6	0	1	90	0.00	29.758 
03:45	51.0	51.0	51.0	95	49.6	0	1	90	0.00	29.757 
03:50	51.0	51.0	51.0	95	49.6	0	1	90	0.00	29.757 
03:55	51.0	51.0	51.0	96	49.9	0	0	---	0.00	29.757 
04:00	51.0	51.0	51.0	95	49.6	0	1	90	0.00	29.760 
04:05	51.0	51.0	51.0	96	49.9	0	1	90	0.00	29.760 
04:10	51.1	51.1	51.1	96	50.0	0	1	90	0.00	29.760 
04:15	51.1	51.1	51.1	96	50.0	0	2	90	0.00	29.759 
04:20	51.1	51.1	51.1	96	50.0	0	1	90	0.00	29.759 
04:25	51.1	51.1	51.1	96	50.0	0	2	90	0.00	29.759 
04:30	51.1	51.1	51.1	96	50.0	0	0	---	0.00	29.758 
04:35	51.3	51.3	51.3	96	50.2	0	0	---	0.00	29.758 
04:40	51.3	51.3	51.3	96	50.2	0	2	90	0.01	29.758 
04:45	51.3	51.3	51.3	96	50.2	0	1	90	0.00	29.757 
04:50	51.3	51.3	51.3	96	50.2	0	1	90	0.00	29.757 
04:55	51.4	51.4	51.4	96	50.3	0	0	---	0.00	29.757 
05:00	51.4	51.4	51.4	96	50.3	0	1	90	0.00	29.756 
05:05	51.4	51.4	51.4	96	50.3	0	2	90	0.00	29.756 
05:10	51.4	51.4	51.4	96	50.3	0	2	90	0.00	29.756 
05:15	51.6	51.6	51.6	96	50.5	0	3	90	0.00	29.757 
05:20	51.6	51.6	51.6	96	50.5	0	2	90	0.00	29.757 
05:25	51.6	51.6	51.6	96	50.5	0	1	90	0.00	29.757 
05:30	51.7	51.7	51.7	96	50.6	0	2	90	0.00	29.754 
05:35	51.7	51.7	51.7	96	50.6	1	3	90	0.00	29.754 
05:40	51.9	51.9	51.9	96	50.8	0	1	90	0.00	29.754 
05:45	51.9	51.9	51.9	96	50.8	0	2	90	0.00	29.761 
05:50	52.0	52.0	52.0	96	50.9	1	2	90	0.00	29.761 
05:55	52.0	52.0	52.0	96	50.9	1	3	90	0.00	29.761 
06:00	52.0	52.0	52.0	96	50.9	2	4	90	0.00	29.764 
06:05	52.2	52.2	52.2	96	51.1	1	4	90	0.00	29.764 
06:10	52.2	52.2	52.2	96	51.1	2	5	90	0.00	29.764 
06:15	52.2	52.2	52.2	96	51.1	0	3	90	0.00	29.772 
06:20	52.2	52.2	52.2	96	51.1	1	4	90	0.00	29.772 
06:25	52.2	52.2	52.2	96	51.1	1	3	112	0.00	29.772 
06:30	52.2	52.2	52.2	96	51.1	1	3	90	0.00	29.774 
06:35	52.3	52.3	52.3	96	51.2	1	3	90	0.00	29.774 
06:40	52.3	52.3	52.3	96	51.2	0	3	90	0.00	29.774 
06:45	52.3	52.3	52.3	96	51.2	0	4	90	0.00	29.779 
06:50	52.3	52.3	52.3	96	51.2	1	4	90	0.00	29.779 
06:55	52.3	52.3	52.3	96	51.2	1	4	90	0.00	29.779 
07:00	52.3	52.3	52.3	97	51.5	0	3	90	0.00	29.780 
07:05	52.3	52.3	52.3	97	51.5	0	1	90	0.00	29.780 
07:10	52.5	52.5	52.5	97	51.7	1	4	90	0.00	29.780 
07:15	52.5	52.5	52.5	97	51.7	1	2	90	0.00	29.781 
07:20	52.5	52.5	52.5	97	51.7	1	4	90	0.00	29.781 
07:25	52.5	52.5	52.5	97	51.7	1	4	112	0.00	29.781 
07:30	52.5	52.5	52.5	97	51.7	2	7	90	0.00	29.788 
07:35	52.5	52.5	52.5	97	51.7	1	5	90	0.00	29.788 
07:40	52.6	52.6	52.6	97	51.8	1	3	90	0.00	29.788 
07:45	52.6	52.6	52.6	97	51.8	2	4	90	0.00	29.791 
07:50	52.6	52.6	52.6	97	51.8	1	3	112	0.00	29.791 
07:55	52.6	52.6	52.6	97	51.8	2	4	90	0.00	29.791 
08:00	52.6	52.6	52.6	97	51.8	1	4	68	0.00	29.794 
08:05	52.6	52.6	52.6	97	51.8	2	6	90	0.00	29.794 
08:10	52.8	52.8	52.8	97	52.0	2	3	112	0.00	29.794 
08:15	52.8	52.8	52.8	97	52.0	1	3	112	0.00	29.795 
08:20	52.8	52.8	52.8	97	52.0	1	4	112	0.00	29.795 
08:25	52.9	52.9	52.9	97	52.1	1	3	112	0.00	29.795 
08:30	52.9	52.9	52.9	97	52.1	0	2	112	0.00	29.796 
08:35	52.9	52.9	52.9	97	52.1	1	4	112	0.00	29.796 
08:40	52.9	52.9	52.9	97	52.1	2	5	112	0.00	29.796 
08:45	52.9	52.9	52.9	97	52.1	1	4	112	0.00	29.797 
08:50	52.9	52.9	52.9	97	52.1	1	5	112	0.00	29.797 
08:55	53.1	53.1	53.1	97	52.3	1	4	112	0.00	29.797 
09:00	53.1	53.1	53.1	97	52.3	2	4	90	0.00	29.798 
09:05	53.2	53.2	53.2	97	52.4	1	7	90	0.00	29.798 
09:10	53.2	53.2	53.2	97	52.4	2	6	90	0.00	29.798 
09:15	53.2	53.2	53.2	97	52.4	1	3	90	0.00	29.797 
09:20	53.3	53.3	53.3	97	52.5	1	4	112	0.00	29.797 
09:25	53.3	53.3	53.3	97	52.5	1	3	112	0.00	29.797 
09:30	53.5	53.5	53.5	97	52.7	1	3	112	0.00	29.803 
09:35	53.5	53.5	53.5	97	52.7	1	4	112	0.00	29.803 
09:40	53.5	53.5	53.5	97	52.7	2	5	112	0.00	29.803 
09:45	53.6	53.6	53.6	97	52.8	2	4	112	0.00	29.804 
09:50	53.6	53.6	53.6	97	52.8	1	3	90	0.00	29.804 
09:55	53.8	53.8	53.8	96	52.7	2	5	90	0.00	29.804 
10:00	53.9	53.9	53.9	97	53.1	1	6	112	0.00	29.803 
10:05	53.9	53.9	53.9	96	52.8	1	5	112	0.00	29.803 
10:10	53.9	53.9	53.9	96	52.8	2	7	112	0.00	29.803 
10:15	53.9	53.9	53.9	96	52.8	3	6	90	0.00	29.807 
10:20	54.2	54.2	54.2	96	53.1	2	5	112	0.00	29.807 
10:25	54.5	54.5	54.5	96	53.4	1	6	112	0.00	29.807 
10:30	54.7	54.7	54.7	96	53.6	2	5	90	0.00	29.807 
10:35	54.7	54.7	54.7	95	53.3	3	7	90	0.00	29.807 
10:40	54.8	54.8	54.8	95	53.4	2	6	90	0.00	29.807 
10:45	55.0	55.0	55.0	94	53.3	2	4	90	0.00	29.809 
10:50	54.8	54.8	54.8	94	53.1	3	7	90	0.00	29.809 
10:55	55.0	55.0	55.0	93	53.0	3	6	90	0.00	29.809 
11:00	55.1	55.1	55.1	93	53.1	2	4	90	0.00	29.808 
11:05	55.3	55.3	55.3	93	53.3	2	6	90	0.00	29.808 
11:10	55.4	55.4	55.4	93	53.4	2	4	90	0.00	29.808 
11:15	55.6	55.6	55.6	92	53.3	1	6	90	0.00	29.808 
11:20	55.4	55.4	55.4	92	53.1	3	9	112	0.00	29.808 
11:25	55.7	55.7	55.7	92	53.4	3	6	68	0.00	29.808 
11:30	56.0	56.0	56.0	91	53.4	2	6	90	0.00	29.810 
11:35	56.5	56.5	56.5	90	53.6	2	7	112	0.00	29.810 
11:40	56.6	56.6	56.6	89	53.4	2	5	90	0.00	29.810 
11:45	56.6	56.6	56.6	89	53.4	2	6	112	0.00	29.817 
11:50	56.7	56.7	56.7	88	53.2	2	10	90	0.00	29.817 
11:55	57.6	57.6	57.6	87	53.8	2	4	90	0.00	29.817 
12:00	58.1	58.1	58.1	86	53.9	1	4	112	0.00	29.820 
12:05	58.1	58.1	58.1	84	53.3	3	10	90	0.00	29.820 
12:10	58.1	58.1	58.1	84	53.3	2	5	112	0.00	29.820 
12:15	58.3	58.3	58.3	83	53.2	3	10	90	0.00	29.823 
12:20	58.6	58.6	58.6	82	53.1	2	5	90	0.00	29.823 
12:25	58.7	58.7	58.7	82	53.2	2	7	90	0.00	29.823 
12:30	59.0	59.0	59.0	80	52.8	3	9	90	0.00	29.822 
12:35	59.2	59.2	59.2	79	52.7	2	6	68	0.00	29.822 
12:40	59.3	59.3	59.3	78	52.4	2	5	90	0.00	29.822 
12:45	59.5	59.5	59.5	78	52.6	1	4	68	0.00	29.822 
12:50	59.8	59.8	59.8	78	52.9	1	6	90	0.00	29.822 
12:55	59.8	59.8	59.8	77	52.6	2	5	112	0.00	29.822 
13:00	59.6	59.6	59.6	77	52.4	2	5	45	0.00	29.824 
13:05	59.6	59.6	59.6	77	52.4	1	4	45	0.00	29.824 
13:10	59.6	59.6	59.6	77	52.4	1	4	45	0.00	29.824 
13:15	59.6	59.6	59.6	78	52.7	1	3	45	0.00	29.823 
13:20	59.9	59.9	59.9	77	52.7	0	1	45	0.00	29.823 
13:25	60.1	60.1	60.1	77	52.9	1	4	45	0.00	29.823 
13:30	60.2	60.2	60.2	77	53.0	0	2	45	0.00	29.822 
13:35	60.4	60.4	60.4	76	52.8	1	3	45	0.00	29.822 
13:40	60.1	60.1	60.1	77	52.9	1	3	45	0.00	29.822 
13:45	59.9	59.9	59.9	78	53.0	1	3	45	0.00	29.827 
13:50	59.8	59.8	59.8	78	52.9	0	1	45	0.00	29.827 
13:55	59.9	59.9	59.9	78	53.0	0	3	45	0.00	29.827 
14:00	59.9	59.9	59.9	79	53.4	0	1	45	0.00	29.829 
14:05	59.9	59.9	59.9	77	52.7	0	3	45	0.00	29.829 
14:10	60.1	60.1	60.1	77	52.9	1	3	45	0.00	29.829 
14:15	60.1	60.1	60.1	77	52.9	0	3	45	0.00	29.833 
14:20	60.2	60.2	60.2	77	53.0	0	2	45	0.00	29.833 
14:25	60.5	60.5	60.5	77	53.2	0	1	45	0.00	29.833 
14:30	61.0	61.0	61.0	77	53.7	0	2	45	0.00	29.826 
14:35	61.3	61.3	61.3	75	53.3	0	3	45	0.00	29.826 
14:40	61.6	61.6	61.6	76	54.0	1	3	45	0.01	29.826 
14:45	61.6	61.6	61.6	74	53.2	1	4	45	0.00	29.821 
14:50	61.6	61.6	61.6	75	53.6	0	2	45	0.00	29.821 
14:55	62.0	62.0	62.0	73	53.2	1	4	45	0.00	29.821 
15:00	62.1	62.1	62.1	75	54.1	1	3	112	0.00	29.820 
15:05	62.3	62.3	62.3	75	54.3	0	2	90	0.00	29.820 
15:10	62.6	62.6	62.6	73	53.8	1	3	90	0.00	29.820 
15:15	63.1	63.1	63.1	72	53.9	0	1	90	0.00	29.819 
15:20	63.5	63.5	63.5	72	54.3	1	4	90	0.00	29.819 
15:25	63.5	63.5	63.5	72	54.3	1	3	90	0.00	29.819 
15:30	63.7	63.7	63.7	72	54.5	1	4	90	0.00	29.819 
15:35	63.7	63.7	63.7	71	54.1	1	5	112	0.00	29.819 
15:40	63.9	63.9	63.9	71	54.3	2	4	112	0.00	29.819 
15:45	63.9	63.9	63.9	71	54.3	1	4	112	0.00	29.819 
15:50	63.7	63.7	63.7	70	53.7	1	5	112	0.00	29.819 
15:55	63.7	63.7	63.7	70	53.7	1	5	90	0.00	29.819 
16:00	63.4	63.4	63.4	69	53.0	2	5	90	0.00	29.820 
16:05	63.2	63.2	63.2	71	53.6	1	3	90	0.00	29.820 
16:10	63.2	63.2	63.2	73	54.4	1	5	90	0.00	29.820 
16:15	63.4	63.4	63.4	75	55.3	0	5	90	0.00	29.820 
16:20	63.4	63.4	63.4	74	55.0	0	1	90	0.00	29.820 
16:25	63.4	63.4	63.4	73	54.6	1	3	90	0.00	29.820 
16:30	63.2	63.2	63.2	73	54.4	0	1	90	0.00	29.821 
16:35	63.2	63.2	63.2	71	53.6	1	4	180	0.00	29.821 
16:40	62.9	62.9	62.9	73	54.1	0	3	90	0.00	29.821 
16:45	62.6	62.6	62.6	73	53.8	0	0	---	0.00	29.822 
16:50	62.6	62.6	62.6	73	53.8	1	3	90	0.00	29.822 
16:55	62.4	62.4	62.4	73	53.6	1	3	90	0.00	29.822 
17:00	62.4	62.4	62.4	74	54.0	0	2	90	0.00	29.831 
17:05	62.4	62.4	62.4	73	53.6	0	2	90	0.00	29.831 
17:10	62.4	62.4	62.4	72	53.2	0	3	90	0.00	29.831 
17:15	62.6	62.6	62.6	73	53.8	0	1	90	0.00	29.834 
17:20	62.7	62.7	62.7	72	53.5	0	2	90	0.00	29.834 
17:25	62.7	62.7	62.7	73	53.9	0	0	---	0.00	29.834 
17:30	62.6	62.6	62.6	75	54.6	0	1	90	0.00	29.833 
17:35	62.6	62.6	62.6	76	54.9	0	0	---	0.00	29.833 
17:40	62.4	62.4	62.4	74	54.0	0	0	---	0.00	29.833 
17:45	62.3	62.3	62.3	76	54.6	0	0	---	0.00	29.828 
17:50	62.1	62.1	62.1	76	54.4	0	0	---	0.00	29.828 
17:55	62.0	62.0	62.0	76	54.3	0	0	---	0.00	29.828 
18:00	61.8	61.8	61.8	76	54.1	0	1	90	0.00	29.831 
18:05	61.8	61.8	61.8	77	54.5	0	0	---	0.00	29.831 
18:10	61.8	61.8	61.8	77	54.5	0	0	---	0.00	29.831 
18:15	61.8	61.8	61.8	77	54.5	0	0	---	0.00	29.829 
18:20	61.8	61.8	61.8	77	54.5	0	1	90	0.00	29.829 
18:25	61.8	61.8	61.8	77	54.5	0	3	90	0.00	29.829 
18:30	61.8	61.8	61.8	76	54.1	1	3	90	0.00	29.830 
18:35	61.8	61.8	61.8	76	54.1	0	1	90	0.00	29.830 
18:40	62.0	62.0	62.0	77	54.7	0	1	90	0.00	29.830 
18:45	62.0	62.0	62.0	76	54.3	0	1	90	0.00	29.828 
18:50	62.3	62.3	62.3	76	54.6	0	0	---	0.00	29.828 
18:55	62.4	62.4	62.4	77	55.1	0	2	90	0.00	29.828 
19:00	62.7	62.7	62.7	76	55.0	0	0	---	0.00	29.833 
19:05	62.7	62.7	62.7	76	55.0	0	2	90	0.00	29.833 
19:10	62.7	62.7	62.7	76	55.0	0	3	90	0.00	29.833 
19:15	62.6	62.6	62.6	76	54.9	0	0	---	0.00	29.833 
19:20	62.6	62.6	62.6	76	54.9	0	3	90	0.00	29.833 
19:25	62.4	62.4	62.4	77	55.1	0	1	90	0.00	29.833 
19:30	62.3	62.3	62.3	77	55.0	0	2	90	0.00	29.835 
19:35	62.1	62.1	62.1	77	54.8	0	2	90	0.00	29.835 
19:40	62.1	62.1	62.1	77	54.8	0	1	90	0.00	29.835 
19:45	62.0	62.0	62.0	77	54.7	0	0	---	0.00	29.835 
19:50	62.0	62.0	62.0	77	54.7	0	0	---	0.00	29.835 
19:55	62.0	62.0	62.0	78	55.1	0	0	---	0.00	29.835 
20:00	62.0	62.0	62.0	77	54.7	0	2	90	0.00	29.837 
20:05	61.8	61.8	61.8	78	54.9	0	1	90	0.00	29.837 
20:10	61.6	61.6	61.6	78	54.7	0	1	90	0.00	29.837 
20:15	61.6	61.6	61.6	78	54.7	0	0	---	0.00	29.842 
20:20	61.5	61.5	61.5	79	54.9	0	0	---	0.00	29.842 
20:25	61.3	61.3	61.3	79	54.7	0	0	---	0.00	29.842 
20:30	61.3	61.3	61.3	79	54.7	0	0	---	0.00	29.845 
20:35	61.2	61.2	61.2	79	54.6	0	0	---	0.00	29.845 
20:40	61.2	61.2	61.2	79	54.6	0	0	---	0.00	29.845 
20:45	61.0	61.0	61.0	79	54.4	0	0	---	0.00	29.844 
20:50	60.9	60.9	60.9	80	54.7	0	0	---	0.00	29.844 
20:55	60.7	60.7	60.7	80	54.5	0	0	---	0.00	29.844 
21:00	60.5	60.5	60.5	81	54.6	0	0	---	0.00	29.846 
21:05	60.5	60.5	60.5	81	54.6	0	0	---	0.00	29.846 
21:10	60.4	60.4	60.4	81	54.5	0	0	---	0.00	29.846 
21:15	60.2	60.2	60.2	81	54.3	0	0	---	0.00	29.846 
21:20	60.1	60.1	60.1	82	54.6	0	0	---	0.00	29.846 
21:25	60.1	60.1	60.1	83	54.9	0	1	90	0.00	29.846 
21:30	59.9	59.9	59.9	84	55.0	0	1	90	0.00	29.852 
21:35	59.9	59.9	59.9	85	55.4	0	0	---	0.00	29.852 
21:40	59.6	59.6	59.6	87	55.7	0	1	90	0.02	29.852 
21:45	59.3	59.3	59.3	88	55.7	0	1	90	0.02	29.857 
21:50	59.0	59.0	59.0	89	55.8	0	0	---	0.04	29.857 
21:55	58.7	58.7	58.7	89	55.5	0	0	---	0.03	29.857 
22:00	58.6	58.6	58.6	90	55.7	0	0	---	0.02	29.865 
22:05	58.4	58.4	58.4	90	55.5	0	0	---	0.01	29.865 
22:10	58.3	58.3	58.3	91	55.7	0	0	---	0.01	29.865 
22:15	58.1	58.1	58.1	91	55.5	0	0	---	0.01	29.867 
22:20	58.0	58.0	58.0	92	55.7	0	0	---	0.00	29.867 
22:25	58.0	58.0	58.0	92	55.7	0	0	---	0.00	29.867 
22:30	57.8	57.8	57.8	92	55.5	0	0	---	0.01	29.868 
22:35	57.8	57.8	57.8	92	55.5	0	0	---	0.00	29.868 
22:40	57.8	57.8	57.8	92	55.5	0	0	---	0.00	29.868 
22:45	57.8	57.8	57.8	93	55.8	0	0	---	0.01	29.868 
22:50	57.6	57.6	57.6	93	55.6	0	0	---	0.00	29.868 
22:55	57.6	57.6	57.6	93	55.6	0	0	---	0.00	29.868 
23:00	57.6	57.6	57.6	93	55.6	0	0	---	0.00	29.870 
23:05	57.5	57.5	57.5	93	55.5	0	0	---	0.00	29.870 
23:10	57.5	57.5	57.5	93	55.5	0	1	90	0.00	29.870 
23:15	57.3	57.3	57.3	94	55.6	0	0	---	0.00	29.866 
23:20	57.2	57.2	57.2	94	55.5	0	0	---	0.00	29.866 
23:25	57.2	57.2	57.2	94	55.5	0	0	---	0.00	29.866 
23:30	57.0	57.0	57.0	94	55.3	0	1	90	0.00	29.866 
23:35	56.9	56.9	56.9	94	55.2	0	0	---	0.00	29.866 
23:40	56.9	56.9	56.9	94	55.2	0	0	---	0.00	29.866 
23:45	56.7	56.7	56.7	94	55.0	0	0	---	0.00	29.867 
23:50	56.7	56.7	56.7	94	55.0	0	0	---	0.00	29.867 
23:55	56.6	56.6	56.6	94	54.9	0	0	---	0.00	29.867 

CoCoRaHS
IN-AL-39
A2 Web Hosting
Creative Commons License
GoDaddy
search engine by freefind advanced

loaded 2018-11-13 02:21:18 • last modified 2010-11-18 10:43:29
Privacy PolicyDisclaimer
• wx.awcolley.com is powered by PmWiki v.2002016 •
• all content (unless otherwise noted) © 2018 A W Colley